Dakota City, IA (50529)

10:26 AM CST on March 01, 2015 (GMT -0600)
KIADAKOT1 | Change Station
CLOSE
Current Station
Personal Weather Station
Location: Dakota City, IA
Elevation: 1130 ft
Nearby Weather Stations

Elev 1130 ft 42.72 °N, 94.20 °W | Updated 2 hours ago

Partly Cloudy
Partly Cloudy
14.7 °F
Feels Like 15 °F
N
3.0
Wind Variable Wind from WSW
Gusts 5.0 mph

Today
High -- | Low -- °F
--% Chance of Precip.
Yesterday
High -- | Low -- °F
Precip. -- in
6:52 AM 6:06 PM
Waxing Gibbous, 86% visible
Pressure 30.35 in
Visibility 10.0 miles
Clouds Mostly Cloudy 7000 ft
Windchill 15 °F
Dew Point 12 °F
Humidity 90%
Rainfall 0.00 in
Snow Depth Not available.
UV 2 out of 12
Pollen .50 out of 12
Air Quality Not available.
Flu Activity Not available.
METAR KFOD 011615Z AUTO 32007KT 10SM BKN070 M07/M10 A3035 RMK AO1

More Conditions Fewer Conditions

Pressure 30.35 in
Visibility 10.0 miles
Clouds Mostly Cloudy 7000 ft
Windchill 15 °F
Dew Point 12 °F
Humidity 90%
Rainfall 0.00 in
Snow Depth Not available.
UV 2 out of 12
Pollen .50 out of 12
Air Quality Not available.
Flu Activity Not available.
METAR KFOD 011615Z AUTO 32007KT 10SM BKN070 M07/M10 A3035 RMK AO1

More Conditions Fewer Conditions

10-Day Weather Forecast

Almanac

Astronomy

Mar. 01, 2015 Rise Set
Actual Time
Civil Twilight
Nautical Twilight
Astronomical Twilight
Moon
Length of Visible Light
Length of Day
Tomorrow will be .
, % of the Moon is Illuminated

Today's Extremes

State Highs State Lows

Community

WunderPhotos

Upload Photos

1,801,446 photos uploaded!

WunderBlogs® & News

Nearby

Air Quality

  Air Quality AQ Index Pollutant
Not available.

Snow Depth

Station Depth Elevation

Earthquake Activity

City Distance Mag. Time & Date
Minimum magnitude displayed is 2.5.

Coastal Water Temperatures

Place Temperature

Nearby Weather Stations